Terminal Aerodrome Forecast
Issued by NWS

Home | Current Version | Previous Version | Text Only | Print | Product List | Glossary On
Versions: 1 2 3 4 5 6 7 8 9 10 11 12 13 14 15 16 17
386
FTUS44 KTSA 241140
TAFXNA
TAF
KXNA 241140Z 2412/2512 VRB06KT 6SM -RA BR SCT009 BKN010 BKN022
      TEMPO 2412/2414 2SM -RA BR BKN004
     FM241400 VRB03KT 4SM BR OVC003
     FM241700 VRB06KT 3SM -RA BKN005
      TEMPO 2417/2420 VRB15G25KT 2SM -TSRA BR BKN015CB
     FM242300 28013KT P6SM BKN015 BKN025
     FM250500 28008KT P6SM SKC=

USA.gov is the U.S. government's official web portal to all federal, state and local government web resources and services.